Latest Weather Observations for Glen Innes Airport

IDN60801

Issued at 1:03 pm EDT Monday 30 March 2015 (issued every 30 minutes, with the page automatically refreshed every 10 minutes)

About weather observations | Map of weather stations | Latest weather observations for NSW | Other Formats
Station Details ID: 056243 Name: GLEN INNES AIRPORT AWS Lat: -29.68 Lon: 151.69 Height: 1044.3 m
Data from the previous 72 hours. | See also: Recent months for locations in New South Wales
Date/Time
EDT
Temp
°C
App
Temp
°C
Dew
Point
Rel
Hum
%
Delta-T
°C
Wind Press
QNH
hPa
Press
MSL
hPa
Rain
since 9 am
mm
Dir
 
Spd
km/h
Gust
km/h
Spd
kts
Gust
kts
30/01:00pm 15.7 14.3 12.1 79 2.1 W 11 15 6 8 1026.7 1022.2 0.2
30/12:30pm 15.7 13.3 12.8 83 1.7 W 17 22 9 12 1026.9 1022.4 0.2
30/12:00pm 14.3 12.1 12.0 86 1.3 W 15 19 8 10 1027.5 1023.0 0.2
30/11:30am 14.0 10.1 10.8 81 1.8 WSW 22 30 12 16 1027.7 1023.2 0.0
30/11:24am 14.6 9.6 10.8 78 2.1 WSW 28 37 15 20 1027.7 1023.2 0.0
30/11:00am 19.6 18.6 12.4 63 4.2 NNW 9 20 5 11 1027.5 1023.0 0.0
30/10:30am 20.3 19.5 12.8 62 4.5 ENE 9 15 5 8 1027.4 1022.9 0.0
30/10:00am 19.3 18.2 13.2 68 3.6 NE 11 15 6 8 1027.6 1023.1 0.0
30/09:30am 17.7 16.6 13.2 75 2.7 E 11 13 6 7 1027.6 1023.1 0.0
30/09:00am 17.6 16.4 13.9 79 2.2 ESE 13 17 7 9 1027.4 1022.9 0.0
30/08:30am 15.6 13.9 13.6 88 1.2 ESE 15 19 8 10 1027.0 1022.5 0.0
30/08:00am 13.9 13.6 13.3 96 0.3 SE 7 11 4 6 1027.0 1022.5 0.0
30/07:30am 12.5 11.9 11.6 94 0.5 SE 6 7 3 4 1026.7 1022.2 0.0
30/07:00am 13.0 11.9 12.1 94 0.5 SSE 9 9 5 5 1026.6 1022.1 0.0
30/06:30am 13.6 12.4 12.8 95 0.5 SE 11 15 6 8 1025.9 1021.4 0.0
30/06:00am 13.5 13.0 12.7 95 0.5 SSE 7 9 4 5 1025.9 1021.4 0.0
30/05:30am 13.3 12.0 12.4 94 0.5 SE 11 13 6 7 1025.1 1020.6 0.0
30/05:00am 13.4 11.7 12.6 95 0.5 SE 13 15 7 8 1025.0 1020.5 0.0
30/04:30am 13.0 11.2 12.2 95 0.5 SE 13 15 7 8 1025.1 1020.6 0.0
30/04:00am 12.6 11.4 11.7 94 0.5 SE 9 13 5 7 1025.5 1020.9 0.0
30/03:30am 13.5 12.2 12.6 94 0.5 SE 11 13 6 7 1025.5 1020.9 0.0
30/03:00am 13.7 11.7 12.8 94 0.5 ESE 15 19 8 10 1025.4 1020.8 0.0
30/02:30am 13.6 11.6 12.7 94 0.5 SE 15 19 8 10 1025.5 1020.9 0.0
30/02:00am 13.4 11.0 12.8 96 0.3 SE 17 20 9 11 1025.8 1021.3 0.0
30/01:30am 10.7 9.0 9.9 95 0.4 SE 9 13 5 7 1025.9 1021.4 0.0
30/01:00am 9.8 7.3 8.1 89 0.9 ESE 11 11 6 6 1025.9 1021.4 0.0
30/12:30am 11.3 9.4 9.0 86 1.2 ESE 9 15 5 8 1026.2 1021.7 0.0
30/12:00am 12.2 10.9 11.1 93 0.6 SE 9 11 5 6 1026.5 1022.0 0.0
 
Date/Time
EDT
Temp
°C
App
Temp
°C
Dew
Point
Rel
Hum
%
Delta-T
°C
Wind Press
QNH
hPa
Press
MSL
hPa
Rain
since 9 am
mm
Dir
 
Spd
km/h
Gust
km/h
Spd
kts
Gust
kts
29/11:30pm 10.1 8.1 8.7 91 0.7 SE 9 11 5 6 1026.6 1022.1 0.0
29/11:00pm 9.8 7.3 8.1 89 0.9 SE 11 13 6 7 1026.4 1021.9 0.0
29/10:30pm 10.8 8.8 8.7 87 1.1 ESE 9 13 5 7 1026.6 1022.1 0.0
29/10:00pm 10.7 8.6 8.1 84 1.3 SE 9 11 5 6 1026.6 1022.1 0.0
29/09:30pm 10.4 8.0 7.1 80 1.7 SE 9 11 5 6 1026.5 1022.0 0.0
29/09:00pm 11.4 9.5 7.5 77 2.0 SE 7 11 4 6 1026.2 1021.7 0.0
29/08:30pm 12.6 11.0 7.9 73 2.4 WSW 6 6 3 3 1026.1 1021.6 0.0
29/08:00pm 14.1 13.5 7.6 65 3.4 CALM 0 0 0 0 1026.1 1021.6 0.0
29/07:30pm 15.7 14.2 6.7 55 4.6 W 4 6 2 3 1025.8 1021.3 0.0
29/07:00pm 18.1 16.1 7.2 49 5.8 WNW 7 9 4 5 1025.3 1020.7 0.0
29/06:30pm 20.7 18.4 7.3 42 7.2 WNW 9 13 5 7 1024.9 1020.4 0.0
29/06:00pm 22.0 19.4 7.8 40 7.8 NW 11 17 6 9 1024.6 1020.0 0.0
29/05:30pm 22.4 20.2 7.8 39 8.0 NW 9 17 5 9 1024.4 1019.8 0.0
29/05:00pm 22.2 18.1 6.0 35 8.6 NW 17 22 9 12 1024.5 1019.9 0.0
29/04:30pm 22.6 18.1 6.8 36 8.5 NW 20 30 11 16 1024.4 1019.8 0.0
29/04:00pm 22.2 19.2 7.6 39 8.0 NW 13 20 7 11 1024.5 1019.9 0.0
29/03:30pm 22.5 18.5 6.7 36 8.5 WNW 17 26 9 14 1024.6 1020.0 0.0
29/03:00pm 22.5 19.5 7.9 39 8.0 WNW 13 20 7 11 1024.9 1020.4 0.0
29/02:30pm 22.9 19.0 7.0 36 8.6 NNW 17 24 9 13 1025.3 1020.7 0.0
29/02:00pm 22.9 20.8 8.2 39 8.1 W 9 22 5 12 1025.5 1020.9 0.0
29/01:30pm 22.7 19.7 7.7 38 8.2 NNW 13 22 7 12 1025.7 1021.2 0.0
29/01:00pm 21.7 18.9 8.6 43 7.2 W 13 19 7 10 1026.1 1021.6 0.0
29/12:30pm 20.3 17.8 8.0 45 6.7 WNW 11 22 6 12 1026.8 1022.3 0.0
29/12:00pm 20.9 18.1 10.1 50 6.1 NW 15 24 8 13 1027.0 1022.5 0.0
29/11:30am 20.0 18.2 9.3 50 6.0 NNW 9 15 5 8 1027.0 1022.5 0.0
29/11:00am 18.9 16.8 11.2 61 4.4 NNE 13 20 7 11 1027.1 1022.6 0.0
29/10:30am 18.2 16.9 11.3 64 4.0 NE 9 17 5 9 1027.6 1023.1 0.0
29/10:00am 17.4 16.5 12.5 73 2.8 NNE 9 13 5 7 1027.6 1023.1 0.0
29/09:30am 16.4 15.7 12.0 75 2.5 NE 7 15 4 8 1027.2 1022.8 0.0
29/09:00am 15.5 14.1 12.3 81 1.8 E 11 13 6 7 1027.0 1022.5 0.0
29/08:30am 15.1 13.4 12.6 85 1.4 ESE 13 15 7 8 1026.5 1022.0 0.0
29/08:00am 13.6 12.2 12.2 91 0.8 ESE 11 13 6 7 1026.0 1021.5 0.0
29/07:30am 12.5 10.5 11.4 93 0.6 ESE 13 17 7 9 1025.6 1021.1 0.0
29/07:00am 12.4 10.3 11.1 92 0.7 SE 13 15 7 8 1025.1 1020.6 0.0
29/06:30am 12.8 11.2 11.4 91 0.8 SE 11 13 6 7 1025.0 1020.5 0.0
29/06:00am 13.2 11.7 11.8 91 0.8 ESE 11 13 6 7 1024.7 1020.2 0.0
29/05:30am 12.8 10.8 11.5 92 0.7 ESE 13 15 7 8 1024.3 1019.7 0.0
29/05:00am 12.8 10.8 11.5 92 0.7 ESE 13 17 7 9 1024.0 1019.5 0.0
29/04:30am 12.7 10.4 11.6 93 0.6 SE 15 20 8 11 1023.8 1019.3 0.0
29/04:00am 12.2 9.6 10.8 91 0.8 ESE 15 19 8 10 1023.8 1019.3 0.0
29/03:30am 12.8 10.4 11.5 92 0.7 SE 15 17 8 9 1024.1 1019.6 0.0
29/03:00am 13.1 10.5 12.0 93 0.6 ESE 17 20 9 11 1024.3 1019.7 0.0
29/02:30am 12.8 10.5 11.7 93 0.6 SE 15 19 8 10 1024.5 1019.9 0.0
29/02:00am 12.7 10.3 11.4 92 0.7 ESE 15 19 8 10 1024.4 1019.8 0.0
29/01:30am 13.5 10.9 12.1 91 0.8 ESE 17 20 9 11 1024.7 1020.2 0.0
29/01:00am 13.7 11.2 12.3 91 0.8 ESE 17 20 9 11 1025.0 1020.5 0.0
29/12:30am 14.1 11.4 12.8 92 0.8 ESE 19 22 10 12 1025.0 1020.5 0.0
29/12:00am 14.3 12.1 13.2 93 0.6 ESE 17 22 9 12 1025.0 1020.5 0.0
 
Date/Time
EDT
Temp
°C
App
Temp
°C
Dew
Point
Rel
Hum
%
Delta-T
°C
Wind Press
QNH
hPa
Press
MSL
hPa
Rain
since 9 am
mm
Dir
 
Spd
km/h
Gust
km/h
Spd
kts
Gust
kts
28/11:30pm 13.8 12.0 13.3 97 0.3 ESE 15 19 8 10 1025.3 1020.7 0.0
28/11:00pm 11.6 9.4 10.7 94 0.5 SSE 13 15 7 8 1025.5 1020.9 0.0
28/10:30pm 12.4 10.4 11.6 95 0.4 SE 13 15 7 8 1025.4 1020.8 0.0
28/10:00pm 12.8 11.6 11.7 93 0.6 SE 9 11 5 6 1025.3 1020.7 0.0
28/09:30pm 13.2 12.1 11.9 92 0.7 ESE 9 9 5 5 1025.1 1020.6 0.0
28/09:00pm 12.9 11.5 11.0 88 1.0 ESE 9 11 5 6 1024.8 1020.3 0.0
28/08:30pm 13.9 12.7 11.6 86 1.3 ESE 9 13 5 7 1024.4 1019.8 0.0
28/08:00pm 11.7 8.2 3.7 58 3.8 SE 11 15 6 8 1023.9 1019.4 0.0
28/07:51pm 11.4 8.2 2.9 56 3.9 S 9 11 5 6 1023.8 1019.3 0.0
28/07:30pm 16.4 13.4 2.1 38 6.8 W 7 9 4 5 1023.3 1018.7 0.0
28/07:00pm 18.1 15.0 1.6 33 7.8 W 7 9 4 5 1023.1 1018.6 0.0
28/06:30pm 20.6 17.1 3.3 32 8.7 W 11 13 6 7 1023.0 1018.5 0.0
28/06:00pm 22.7 18.8 3.3 28 9.8 W 13 17 7 9 1022.8 1018.2 0.0
28/05:30pm 23.2 19.4 3.7 28 10.0 WNW 13 19 7 10 1022.7 1018.1 0.0
28/05:00pm 23.4 19.4 4.9 30 9.7 WNW 15 22 8 12 1022.6 1018.0 0.0
28/04:30pm 23.1 19.0 4.1 29 9.8 NW 15 22 8 12 1022.7 1018.1 0.0
28/04:00pm 23.3 18.7 1.6 24 10.7 NNW 15 22 8 12 1022.8 1018.2 0.0
28/03:30pm 23.5 18.8 3.4 27 10.3 N 17 26 9 14 1022.9 1018.4 0.0
28/03:00pm 23.7 18.5 0.1 21 11.3 NW 17 24 9 13 1023.4 1018.8 0.0
28/02:30pm 23.4 19.3 -3.0 17 12.0 WNW 9 17 5 9 1023.5 1018.9 0.0
28/02:00pm 22.8 18.1 1.2 24 10.5 W 15 26 8 14 1023.5 1018.9 0.0
28/01:30pm 23.2 19.0 3.7 28 10.0 NW 15 22 8 12 1023.9 1019.4 0.0
28/01:00pm 22.6 18.5 2.1 26 10.1 NNW 13 20 7 11 1024.3 1019.7 0.0
28/12:30pm 21.9 17.8 2.1 27 9.8 NNW 13 19 7 10 1024.6 1020.0 0.0
28/12:00pm 20.8 17.4 1.6 28 9.3 NNW 9 20 5 11 1024.9 1020.4 0.0
28/11:30am 19.9 16.2 -0.1 26 9.3 NW 9 15 5 8 1025.4 1020.8 0.0
28/11:00am 19.4 15.2 -1.1 25 9.3 NNE 11 19 6 10 1025.5 1020.9 0.0
28/10:30am 18.9 16.2 3.5 36 7.7 NE 7 13 4 7 1025.5 1020.9 0.0
28/10:00am 16.7 13.6 3.4 41 6.5 ESE 9 15 5 8 1025.7 1021.2 0.0
28/09:30am 14.6 11.1 3.7 48 5.3 E 11 15 6 8 1025.5 1020.9 0.0
28/09:00am 12.6 8.9 2.5 50 4.7 E 11 15 6 8 1025.4 1020.8 0.0
28/08:30am 9.5 6.5 4.3 70 2.4 E 9 11 5 6 1025.0 1020.5 0.0
28/08:00am 6.1 3.2 2.4 77 1.6 SE 7 11 4 6 1024.5 1019.9 0.0
28/07:30am 2.9 -2.3 0.0 81 1.2 ESE 17 19 9 10 1024.0 1019.5 0.0
28/07:00am 1.0 -3.3 -1.4 84 0.9 ESE 11 13 6 7 1023.8 1019.3 0.0
28/06:30am 0.3 -3.6 -1.6 87 0.7 SE 9 13 5 7 1023.4 1018.8 0.0
28/06:00am 0.5 -3.3 -1.1 89 0.6 ESE 9 11 5 6 1023.0 1018.5 0.0
28/05:30am 2.0 -2.8 0.2 88 0.7 ESE 15 19 8 10 1022.5 1017.9 0.0
28/05:00am 1.6 -2.9 -0.5 86 0.8 ESE 13 15 7 8 1022.3 1017.7 0.0
28/04:30am 2.1 -1.9 0.3 88 0.7 ESE 11 15 6 8 1022.4 1017.8 0.0
28/04:00am 3.3 -0.1 2.0 91 0.5 ESE 9 13 5 7 1022.4 1017.8 0.0
28/03:30am 4.3 0.2 2.3 87 0.9 ESE 13 15 7 8 1022.5 1017.9 0.0
28/03:00am 3.5 -0.2 0.2 79 1.3 ESE 9 13 5 7 1022.8 1018.2 0.0
28/02:30am 4.2 -0.6 0.4 76 1.6 ESE 15 17 8 9 1022.9 1018.4 0.0
28/02:00am 4.1 -1.0 0.6 78 1.4 ESE 17 19 9 10 1023.0 1018.5 0.0
28/01:30am 4.2 -0.4 1.4 82 1.2 E 15 17 8 9 1023.3 1018.7 0.0
28/01:00am 4.5 0.7 1.5 81 1.3 ESE 11 15 6 8 1023.4 1018.8 0.0
28/12:30am 4.9 0.6 1.0 76 1.6 ESE 13 15 7 8 1023.6 1019.0 0.0
28/12:00am 5.0 0.7 0.8 74 1.7 SE 13 15 7 8 1023.6 1019.0 0.0
 
Date/Time
EDT
Temp
°C
App
Temp
°C
Dew
Point
Rel
Hum
%
Delta-T
°C
Wind Press
QNH
hPa
Press
MSL
hPa
Rain
since 9 am
mm
Dir
 
Spd
km/h
Gust
km/h
Spd
kts
Gust
kts
27/11:30pm 5.7 2.2 1.2 73 1.9 SE 9 13 5 7 1023.8 1019.3 0.0
27/11:00pm 5.8 1.6 1.7 75 1.8 SSE 13 15 7 8 1023.9 1019.4 0.0
27/10:30pm 5.6 1.4 1.5 75 1.7 SSE 13 15 7 8 1023.9 1019.4 0.0
27/10:00pm 7.3 3.6 2.2 70 2.2 SSE 11 15 6 8 1023.9 1019.4 0.0
27/09:30pm 9.3 6.6 2.4 62 3.1 SE 6 6 3 3 1023.7 1019.1 0.0
27/09:00pm 9.5 6.7 2.1 60 3.3 W 6 6 3 3 1023.5 1018.9 0.0
27/08:30pm 10.8 7.9 2.6 57 3.8 W 7 9 4 5 1023.4 1018.8 0.0
27/08:00pm 13.6 10.5 1.3 43 5.6 W 7 9 4 5 1023.0 1018.5 0.0
27/07:30pm 14.8 11.4 1.7 41 6.1 W 9 9 5 5 1022.8 1018.2 0.0
27/07:00pm 16.0 11.7 1.0 36 6.9 WNW 13 13 7 7 1022.4 1017.8 0.0
27/06:30pm 20.0 16.1 1.4 29 8.9 WNW 11 13 6 7 1022.0 1017.5 0.0
27/06:00pm 21.6 16.2 -1.0 22 10.5 W 17 20 9 11 1021.8 1017.2 0.0
27/05:30pm 22.4 16.9 -2.3 19 11.3 WSW 17 24 9 13 1021.7 1017.1 0.0
27/05:00pm 22.6 16.6 -1.5 20 11.1 W 20 26 11 14 1021.5 1016.9 0.0
27/04:30pm 23.1 17.9 0.2 22 11.0 W 17 24 9 13 1021.5 1016.9 0.0
27/04:00pm 23.4 17.7 -0.8 20 11.4 WSW 19 28 10 15 1021.5 1016.9 0.0
27/03:30pm 23.5 17.5 -1.4 19 11.6 W 20 30 11 16 1021.7 1017.1 0.0
27/03:00pm 23.4 17.3 0.5 22 11.1 WNW 22 28 12 15 1021.9 1017.3 0.0
27/02:30pm 23.6 17.7 -0.6 20 11.5 W 20 28 11 15 1022.2 1017.6 0.0
27/02:00pm 23.2 17.7 0.9 23 10.8 W 19 30 10 16 1022.4 1017.8 0.0
27/01:30pm 23.6 18.0 0.0 21 11.3 W 19 28 10 15 1022.6 1018.0 0.0

Other Formats:

Comma delimited format used in spreadsheet applications
http://www.bom.gov.au/fwo/IDN60801/IDN60801.94588.axf

JavaScript Object Notation format (JSON) in row-major order
http://www.bom.gov.au/fwo/IDN60801/IDN60801.94588.json